sensor_id;sensor_type;location;lat;lon;timestamp;P1;durP1;ratioP1;P2;durP2;ratioP2
19525;SDS011;9907;42.676;26.348;2023-12-20T04:04:04;12.03;;;8.93;;
19525;SDS011;9907;42.676;26.348;2023-12-20T04:06:30;12.50;;;9.40;;
19525;SDS011;9907;42.676;26.348;2023-12-20T04:08:55;12.10;;;9.00;;
19525;SDS011;9907;42.676;26.348;2023-12-20T04:11:20;10.27;;;8.87;;
19525;SDS011;9907;42.676;26.348;2023-12-20T04:13:46;10.90;;;7.20;;
19525;SDS011;9907;42.676;26.348;2023-12-20T04:16:11;10.63;;;7.00;;
19525;SDS011;9907;42.676;26.348;2023-12-20T04:18:37;9.50;;;7.17;;
19525;SDS011;9907;42.676;26.348;2023-12-20T04:21:02;9.80;;;6.60;;
19525;SDS011;9907;42.676;26.348;2023-12-20T04:23:28;8.03;;;5.67;;
19525;SDS011;9907;42.676;26.348;2023-12-20T04:25:54;6.80;;;5.63;;
19525;SDS011;9907;42.676;26.348;2023-12-20T04:28:19;6.23;;;5.00;;
19525;SDS011;9907;42.676;26.348;2023-12-20T04:30:45;6.90;;;5.30;;
19525;SDS011;9907;42.676;26.348;2023-12-20T04:33:10;6.03;;;4.60;;
19525;SDS011;9907;42.676;26.348;2023-12-20T04:35:36;6.07;;;5.37;;
19525;SDS011;9907;42.676;26.348;2023-12-20T04:38:01;6.07;;;5.27;;
19525;SDS011;9907;42.676;26.348;2023-12-20T04:40:27;6.10;;;4.97;;
19525;SDS011;9907;42.676;26.348;2023-12-20T04:42:54;9.17;;;5.70;;
19525;SDS011;9907;42.676;26.348;2023-12-20T04:45:19;8.73;;;6.43;;
19525;SDS011;9907;42.676;26.348;2023-12-20T04:47:44;7.83;;;6.20;;
19525;SDS011;9907;42.676;26.348;2023-12-20T04:50:12;10.70;;;6.73;;
19525;SDS011;9907;42.676;26.348;2023-12-20T04:52:38;12.13;;;8.90;;
19525;SDS011;9907;42.676;26.348;2023-12-20T04:55:04;11.47;;;9.00;;
19525;SDS011;9907;42.676;26.348;2023-12-20T04:57:32;12.20;;;8.43;;
19525;SDS011;9907;42.676;26.348;2023-12-20T04:59:57;11.83;;;8.10;;
19525;SDS011;9907;42.676;26.348;2023-12-20T05:02:23;10.87;;;7.67;;
19525;SDS011;9907;42.676;26.348;2023-12-20T05:04:48;8.93;;;6.53;;
19525;SDS011;9907;42.676;26.348;2023-12-20T05:07:14;8.07;;;6.03;;
19525;SDS011;9907;42.676;26.348;2023-12-20T05:09:39;9.67;;;6.47;;
19525;SDS011;9907;42.676;26.348;2023-12-20T05:12:05;8.13;;;6.50;;
19525;SDS011;9907;42.676;26.348;2023-12-20T05:14:31;7.43;;;6.07;;
19525;SDS011;9907;42.676;26.348;2023-12-20T05:16:56;7.40;;;5.67;;
19525;SDS011;9907;42.676;26.348;2023-12-20T05:19:22;8.23;;;5.97;;
19525;SDS011;9907;42.676;26.348;2023-12-20T05:21:48;9.50;;;7.10;;
19525;SDS011;9907;42.676;26.348;2023-12-20T05:24:13;17.43;;;8.30;;
19525;SDS011;9907;42.676;26.348;2023-12-20T05:26:39;10.07;;;7.43;;
19525;SDS011;9907;42.676;26.348;2023-12-20T05:29:05;12.47;;;7.50;;
19525;SDS011;9907;42.676;26.348;2023-12-20T05:31:31;10.63;;;7.30;;
19525;SDS011;9907;42.676;26.348;2023-12-20T05:33:57;12.20;;;7.10;;
19525;SDS011;9907;42.676;26.348;2023-12-20T05:36:22;11.10;;;7.80;;
19525;SDS011;9907;42.676;26.348;2023-12-20T05:38:48;12.07;;;8.30;;
19525;SDS011;9907;42.676;26.348;2023-12-20T05:41:13;13.13;;;9.07;;
19525;SDS011;9907;42.676;26.348;2023-12-20T05:43:39;13.50;;;9.33;;
19525;SDS011;9907;42.676;26.348;2023-12-20T05:46:04;10.97;;;9.67;;
19525;SDS011;9907;42.676;26.348;2023-12-20T05:48:30;15.60;;;8.90;;
19525;SDS011;9907;42.676;26.348;2023-12-20T05:50:55;15.13;;;9.13;;
19525;SDS011;9907;42.676;26.348;2023-12-20T05:53:21;13.47;;;9.03;;
19525;SDS011;9907;42.676;26.348;2023-12-20T05:55:46;12.23;;;8.77;;
19525;SDS011;9907;42.676;26.348;2023-12-20T05:58:12;9.00;;;7.50;;
19525;SDS011;9907;42.676;26.348;2023-12-20T06:00:37;10.67;;;7.60;;
19525;SDS011;9907;42.676;26.348;2023-12-20T06:03:03;15.40;;;8.73;;
19525;SDS011;9907;42.676;26.348;2023-12-20T06:05:30;13.97;;;10.47;;
19525;SDS011;9907;42.676;26.348;2023-12-20T06:07:56;20.17;;;12.63;;
19525;SDS011;9907;42.676;26.348;2023-12-20T06:10:26;27.33;;;12.23;;
19525;SDS011;9907;42.676;26.348;2023-12-20T06:12:52;19.90;;;11.03;;
19525;SDS011;9907;42.676;26.348;2023-12-20T06:15:18;22.73;;;11.40;;
19525;SDS011;9907;42.676;26.348;2023-12-20T06:17:43;17.73;;;11.70;;
19525;SDS011;9907;42.676;26.348;2023-12-20T06:20:09;25.37;;;11.53;;
19525;SDS011;9907;42.676;26.348;2023-12-20T06:22:35;20.33;;;12.53;;
19525;SDS011;9907;42.676;26.348;2023-12-20T06:25:02;22.87;;;12.90;;
19525;SDS011;9907;42.676;26.348;2023-12-20T06:27:28;24.80;;;13.43;;
19525;SDS011;9907;42.676;26.348;2023-12-20T06:29:53;22.20;;;12.80;;
19525;SDS011;9907;42.676;26.348;2023-12-20T06:32:19;31.07;;;13.40;;
19525;SDS011;9907;42.676;26.348;2023-12-20T06:34:44;24.37;;;13.47;;
19525;SDS011;9907;42.676;26.348;2023-12-20T06:37:10;35.20;;;13.77;;
19525;SDS011;9907;42.676;26.348;2023-12-20T06:39:35;35.73;;;22.63;;
19525;SDS011;9907;42.676;26.348;2023-12-20T06:42:01;32.60;;;17.43;;
19525;SDS011;9907;42.676;26.348;2023-12-20T06:44:26;28.30;;;15.60;;
19525;SDS011;9907;42.676;26.348;2023-12-20T06:46:52;24.13;;;13.50;;
19525;SDS011;9907;42.676;26.348;2023-12-20T06:49:17;31.47;;;14.43;;
19525;SDS011;9907;42.676;26.348;2023-12-20T06:51:44;33.10;;;20.40;;
19525;SDS011;9907;42.676;26.348;2023-12-20T06:54:10;27.50;;;18.37;;
19525;SDS011;9907;42.676;26.348;2023-12-20T06:56:35;24.10;;;16.40;;
19525;SDS011;9907;42.676;26.348;2023-12-20T06:59:00;41.70;;;24.03;;
19525;SDS011;9907;42.676;26.348;2023-12-20T07:01:26;36.83;;;22.33;;
19525;SDS011;9907;42.676;26.348;2023-12-20T07:03:51;34.53;;;23.07;;
19525;SDS011;9907;42.676;26.348;2023-12-20T07:06:17;33.97;;;22.50;;
19525;SDS011;9907;42.676;26.348;2023-12-20T07:08:42;38.33;;;22.47;;
19525;SDS011;9907;42.676;26.348;2023-12-20T07:11:08;35.47;;;20.03;;
19525;SDS011;9907;42.676;26.348;2023-12-20T07:13:33;25.37;;;17.03;;
19525;SDS011;9907;42.676;26.348;2023-12-20T07:15:59;22.83;;;12.97;;
19525;SDS011;9907;42.676;26.348;2023-12-20T07:18:24;21.43;;;13.30;;
19525;SDS011;9907;42.676;26.348;2023-12-20T07:20:50;20.97;;;13.40;;
19525;SDS011;9907;42.676;26.348;2023-12-20T07:23:17;19.07;;;13.97;;
19525;SDS011;9907;42.676;26.348;2023-12-20T07:25:44;21.73;;;15.47;;
19525;SDS011;9907;42.676;26.348;2023-12-20T07:28:10;17.93;;;12.47;;
19525;SDS011;9907;42.676;26.348;2023-12-20T07:30:35;15.70;;;10.90;;
19525;SDS011;9907;42.676;26.348;2023-12-20T07:33:01;15.07;;;11.63;;
19525;SDS011;9907;42.676;26.348;2023-12-20T07:35:27;14.47;;;11.47;;
19525;SDS011;9907;42.676;26.348;2023-12-20T07:37:53;18.80;;;12.80;;
19525;SDS011;9907;42.676;26.348;2023-12-20T07:40:18;15.63;;;12.27;;
19525;SDS011;9907;42.676;26.348;2023-12-20T07:42:44;21.03;;;15.73;;
19525;SDS011;9907;42.676;26.348;2023-12-20T07:45:09;23.40;;;15.90;;
19525;SDS011;9907;42.676;26.348;2023-12-20T07:47:38;17.53;;;13.80;;
19525;SDS011;9907;42.676;26.348;2023-12-20T07:50:03;18.50;;;14.10;;
19525;SDS011;9907;42.676;26.348;2023-12-20T07:52:29;13.17;;;11.83;;
19525;SDS011;9907;42.676;26.348;2023-12-20T07:54:55;16.27;;;11.80;;
19525;SDS011;9907;42.676;26.348;2023-12-20T07:57:20;12.10;;;10.73;;
19525;SDS011;9907;42.676;26.348;2023-12-20T07:59:46;13.03;;;10.30;;
19525;SDS011;9907;42.676;26.348;2023-12-20T08:02:12;12.33;;;10.13;;
19525;SDS011;9907;42.676;26.348;2023-12-20T08:04:37;12.80;;;11.47;;
19525;SDS011;9907;42.676;26.348;2023-12-20T08:07:03;12.83;;;10.70;;
19525;SDS011;9907;42.676;26.348;2023-12-20T08:09:29;14.77;;;11.37;;
19525;SDS011;9907;42.676;26.348;2023-12-20T08:11:54;15.63;;;11.90;;
19525;SDS011;9907;42.676;26.348;2023-12-20T08:14:20;16.23;;;12.53;;
19525;SDS011;9907;42.676;26.348;2023-12-20T08:16:46;15.53;;;13.93;;
19525;SDS011;9907;42.676;26.348;2023-12-20T08:19:11;37.20;;;27.97;;
19525;SDS011;9907;42.676;26.348;2023-12-20T08:21:37;32.83;;;26.60;;
19525;SDS011;9907;42.676;26.348;2023-12-20T08:24:03;39.30;;;25.60;;
19525;SDS011;9907;42.676;26.348;2023-12-20T08:26:28;38.10;;;26.70;;
19525;SDS011;9907;42.676;26.348;2023-12-20T08:28:54;34.97;;;26.20;;
19525;SDS011;9907;42.676;26.348;2023-12-20T08:31:19;29.43;;;22.13;;
19525;SDS011;9907;42.676;26.348;2023-12-20T08:33:46;30.87;;;21.00;;
19525;SDS011;9907;42.676;26.348;2023-12-20T08:36:13;35.87;;;21.57;;
19525;SDS011;9907;42.676;26.348;2023-12-20T08:38:39;34.93;;;22.40;;
19525;SDS011;9907;42.676;26.348;2023-12-20T08:41:05;31.97;;;21.40;;
19525;SDS011;9907;42.676;26.348;2023-12-20T08:43:32;31.37;;;22.20;;
19525;SDS011;9907;42.676;26.348;2023-12-20T08:45:59;30.93;;;21.77;;
19525;SDS011;9907;42.676;26.348;2023-12-20T08:48:25;31.63;;;21.23;;
19525;SDS011;9907;42.676;26.348;2023-12-20T08:50:50;29.37;;;18.97;;
19525;SDS011;9907;42.676;26.348;2023-12-20T08:53:17;31.90;;;17.83;;
19525;SDS011;9907;42.676;26.348;2023-12-20T08:55:43;26.13;;;17.03;;
19525;SDS011;9907;42.676;26.348;2023-12-20T08:58:09;19.67;;;15.20;;
19525;SDS011;9907;42.676;26.348;2023-12-20T09:00:35;22.30;;;15.50;;
19525;SDS011;9907;42.676;26.348;2023-12-20T09:03:01;19.33;;;15.27;;
19525;SDS011;9907;42.676;26.348;2023-12-20T09:05:27;24.50;;;17.20;;
19525;SDS011;9907;42.676;26.348;2023-12-20T09:07:53;23.57;;;16.63;;
19525;SDS011;9907;42.676;26.348;2023-12-20T09:10:19;21.60;;;14.83;;
19525;SDS011;9907;42.676;26.348;2023-12-20T09:12:47;17.37;;;12.87;;
19525;SDS011;9907;42.676;26.348;2023-12-20T09:15:14;21.03;;;13.93;;
19525;SDS011;9907;42.676;26.348;2023-12-20T09:17:40;20.00;;;13.50;;
19525;SDS011;9907;42.676;26.348;2023-12-20T09:20:06;15.80;;;12.97;;
19525;SDS011;9907;42.676;26.348;2023-12-20T09:22:33;16.67;;;12.73;;
19525;SDS011;9907;42.676;26.348;2023-12-20T09:24:59;22.73;;;15.47;;
19525;SDS011;9907;42.676;26.348;2023-12-20T09:27:25;19.47;;;11.80;;
19525;SDS011;9907;42.676;26.348;2023-12-20T09:29:51;17.00;;;11.67;;
19525;SDS011;9907;42.676;26.348;2023-12-20T09:32:16;14.50;;;10.20;;
19525;SDS011;9907;42.676;26.348;2023-12-20T09:34:42;13.97;;;10.07;;
19525;SDS011;9907;42.676;26.348;2023-12-20T09:37:07;11.40;;;8.50;;
19525;SDS011;9907;42.676;26.348;2023-12-20T09:39:33;11.37;;;9.33;;
19525;SDS011;9907;42.676;26.348;2023-12-20T09:44:31;12.10;;;8.73;;
19525;SDS011;9907;42.676;26.348;2023-12-20T09:46:58;10.47;;;7.93;;
19525;SDS011;9907;42.676;26.348;2023-12-20T09:49:23;18.37;;;11.17;;
19525;SDS011;9907;42.676;26.348;2023-12-20T09:51:53;14.87;;;9.90;;
19525;SDS011;9907;42.676;26.348;2023-12-20T09:54:19;12.67;;;9.90;;
19525;SDS011;9907;42.676;26.348;2023-12-20T09:56:46;23.30;;;14.50;;
19525;SDS011;9907;42.676;26.348;2023-12-20T09:59:12;28.40;;;16.37;;
19525;SDS011;9907;42.676;26.348;2023-12-20T10:01:38;26.57;;;17.20;;
19525;SDS011;9907;42.676;26.348;2023-12-20T10:04:06;27.30;;;17.20;;
19525;SDS011;9907;42.676;26.348;2023-12-20T10:06:37;19.13;;;14.77;;
19525;SDS011;9907;42.676;26.348;2023-12-20T10:09:03;20.27;;;13.57;;
19525;SDS011;9907;42.676;26.348;2023-12-20T10:11:29;19.20;;;12.40;;
19525;SDS011;9907;42.676;26.348;2023-12-20T10:14:01;15.93;;;12.13;;
19525;SDS011;9907;42.676;26.348;2023-12-20T10:16:26;12.60;;;10.73;;
19525;SDS011;9907;42.676;26.348;2023-12-20T10:18:56;14.70;;;10.73;;
19525;SDS011;9907;42.676;26.348;2023-12-20T10:21:25;13.77;;;10.90;;
19525;SDS011;9907;42.676;26.348;2023-12-20T10:23:51;15.30;;;9.40;;
19525;SDS011;9907;42.676;26.348;2023-12-20T10:26:21;12.07;;;8.50;;
19525;SDS011;9907;42.676;26.348;2023-12-20T10:28:54;12.67;;;9.33;;
19525;SDS011;9907;42.676;26.348;2023-12-20T10:31:32;9.57;;;7.80;;
19525;SDS011;9907;42.676;26.348;2023-12-20T10:33:59;9.07;;;7.30;;
19525;SDS011;9907;42.676;26.348;2023-12-20T10:36:25;9.63;;;8.10;;
19525;SDS011;9907;42.676;26.348;2023-12-20T10:38:52;11.93;;;8.57;;
19525;SDS011;9907;42.676;26.348;2023-12-20T10:41:22;16.10;;;10.13;;
19525;SDS011;9907;42.676;26.348;2023-12-20T10:44:01;17.50;;;11.53;;
19525;SDS011;9907;42.676;26.348;2023-12-20T10:46:28;16.37;;;11.20;;
19525;SDS011;9907;42.676;26.348;2023-12-20T10:48:55;14.03;;;9.73;;
19525;SDS011;9907;42.676;26.348;2023-12-20T10:51:22;14.10;;;9.63;;
19525;SDS011;9907;42.676;26.348;2023-12-20T10:53:49;9.33;;;8.13;;
19525;SDS011;9907;42.676;26.348;2023-12-20T10:56:19;12.73;;;9.70;;
19525;SDS011;9907;42.676;26.348;2023-12-20T10:58:46;10.87;;;9.63;;
19525;SDS011;9907;42.676;26.348;2023-12-20T11:01:13;15.43;;;9.83;;
19525;SDS011;9907;42.676;26.348;2023-12-20T11:03:50;16.70;;;10.57;;
19525;SDS011;9907;42.676;26.348;2023-12-20T11:14:48;15.07;;;7.60;;
19525;SDS011;9907;42.676;26.348;2023-12-20T11:17:16;9.70;;;7.27;;
19525;SDS011;9907;42.676;26.348;2023-12-20T11:22:24;14.47;;;7.73;;
19525;SDS011;9907;42.676;26.348;2023-12-20T11:24:50;12.43;;;7.90;;
19525;SDS011;9907;42.676;26.348;2023-12-20T11:27:18;12.53;;;7.73;;
19525;SDS011;9907;42.676;26.348;2023-12-20T11:29:50;12.57;;;8.60;;
19525;SDS011;9907;42.676;26.348;2023-12-20T11:35:01;10.07;;;6.80;;
19525;SDS011;9907;42.676;26.348;2023-12-20T11:37:38;8.13;;;6.13;;
19525;SDS011;9907;42.676;26.348;2023-12-20T11:40:08;7.97;;;6.50;;
19525;SDS011;9907;42.676;26.348;2023-12-20T11:42:38;10.83;;;6.93;;
19525;SDS011;9907;42.676;26.348;2023-12-20T11:45:05;7.87;;;6.23;;
19525;SDS011;9907;42.676;26.348;2023-12-20T11:47:33;7.37;;;5.83;;
19525;SDS011;9907;42.676;26.348;2023-12-20T11:49:59;7.90;;;6.30;;
19525;SDS011;9907;42.676;26.348;2023-12-20T11:52:28;10.53;;;6.20;;
19525;SDS011;9907;42.676;26.348;2023-12-20T11:54:54;10.27;;;7.70;;
19525;SDS011;9907;42.676;26.348;2023-12-20T11:57:19;10.00;;;7.67;;
19525;SDS011;9907;42.676;26.348;2023-12-20T11:59:44;6.97;;;5.30;;
19525;SDS011;9907;42.676;26.348;2023-12-20T12:02:11;8.27;;;5.10;;
19525;SDS011;9907;42.676;26.348;2023-12-20T12:04:37;5.77;;;4.90;;
19525;SDS011;9907;42.676;26.348;2023-12-20T12:07:02;7.73;;;5.17;;
19525;SDS011;9907;42.676;26.348;2023-12-20T12:09:28;8.53;;;5.50;;
19525;SDS011;9907;42.676;26.348;2023-12-20T12:11:54;7.37;;;5.80;;
19525;SDS011;9907;42.676;26.348;2023-12-20T12:14:20;7.70;;;5.90;;
19525;SDS011;9907;42.676;26.348;2023-12-20T12:16:45;6.07;;;5.20;;
19525;SDS011;9907;42.676;26.348;2023-12-20T12:19:24;7.63;;;5.90;;
19525;SDS011;9907;42.676;26.348;2023-12-20T12:21:51;8.80;;;5.53;;
19525;SDS011;9907;42.676;26.348;2023-12-20T12:24:28;8.40;;;5.57;;
19525;SDS011;9907;42.676;26.348;2023-12-20T12:26:56;6.50;;;5.33;;
19525;SDS011;9907;42.676;26.348;2023-12-20T12:29:22;10.33;;;6.87;;
19525;SDS011;9907;42.676;26.348;2023-12-20T12:31:49;11.07;;;6.50;;
19525;SDS011;9907;42.676;26.348;2023-12-20T12:34:15;9.77;;;7.27;;
19525;SDS011;9907;42.676;26.348;2023-12-20T12:36:41;9.13;;;6.73;;
19525;SDS011;9907;42.676;26.348;2023-12-20T12:39:06;8.50;;;6.97;;
19525;SDS011;9907;42.676;26.348;2023-12-20T12:41:32;11.97;;;7.47;;
19525;SDS011;9907;42.676;26.348;2023-12-20T12:43:57;8.17;;;6.30;;
19525;SDS011;9907;42.676;26.348;2023-12-20T12:46:23;7.90;;;6.30;;
19525;SDS011;9907;42.676;26.348;2023-12-20T12:48:48;10.07;;;6.47;;
19525;SDS011;9907;42.676;26.348;2023-12-20T12:51:15;12.77;;;8.10;;
19525;SDS011;9907;42.676;26.348;2023-12-20T12:53:41;12.20;;;8.77;;
19525;SDS011;9907;42.676;26.348;2023-12-20T12:56:06;10.50;;;8.63;;
19525;SDS011;9907;42.676;26.348;2023-12-20T12:58:32;12.40;;;8.00;;
19525;SDS011;9907;42.676;26.348;2023-12-20T13:00:58;14.00;;;9.63;;
19525;SDS011;9907;42.676;26.348;2023-12-20T13:03:24;12.03;;;8.87;;
19525;SDS011;9907;42.676;26.348;2023-12-20T13:05:50;7.20;;;6.20;;
19525;SDS011;9907;42.676;26.348;2023-12-20T13:08:15;7.50;;;6.20;;
19525;SDS011;9907;42.676;26.348;2023-12-20T13:10:41;13.20;;;9.30;;
19525;SDS011;9907;42.676;26.348;2023-12-20T13:13:06;11.70;;;8.17;;
19525;SDS011;9907;42.676;26.348;2023-12-20T13:15:32;12.00;;;6.83;;
19525;SDS011;9907;42.676;26.348;2023-12-20T13:17:57;9.37;;;7.27;;
19525;SDS011;9907;42.676;26.348;2023-12-20T13:20:23;10.07;;;7.37;;
19525;SDS011;9907;42.676;26.348;2023-12-20T13:22:48;9.27;;;7.37;;
19525;SDS011;9907;42.676;26.348;2023-12-20T13:25:14;9.03;;;7.47;;
19525;SDS011;9907;42.676;26.348;2023-12-20T13:27:40;10.00;;;8.00;;
19525;SDS011;9907;42.676;26.348;2023-12-20T13:30:06;13.37;;;7.97;;
19525;SDS011;9907;42.676;26.348;2023-12-20T13:32:32;12.07;;;7.97;;
19525;SDS011;9907;42.676;26.348;2023-12-20T13:34:57;10.73;;;8.73;;
19525;SDS011;9907;42.676;26.348;2023-12-20T13:37:23;14.03;;;10.50;;
19525;SDS011;9907;42.676;26.348;2023-12-20T13:39:48;13.03;;;9.80;;
19525;SDS011;9907;42.676;26.348;2023-12-20T13:42:14;10.30;;;8.27;;
19525;SDS011;9907;42.676;26.348;2023-12-20T13:44:40;14.67;;;9.93;;
19525;SDS011;9907;42.676;26.348;2023-12-20T13:47:05;13.57;;;10.37;;
19525;SDS011;9907;42.676;26.348;2023-12-20T13:49:31;10.73;;;9.20;;
19525;SDS011;9907;42.676;26.348;2023-12-20T13:51:57;13.27;;;9.50;;
19525;SDS011;9907;42.676;26.348;2023-12-20T13:54:23;11.37;;;7.40;;
19525;SDS011;9907;42.676;26.348;2023-12-20T13:56:49;11.13;;;7.13;;
19525;SDS011;9907;42.676;26.348;2023-12-20T13:59:14;15.83;;;6.53;;
19525;SDS011;9907;42.676;26.348;2023-12-20T14:01:40;8.73;;;6.00;;
19525;SDS011;9907;42.676;26.348;2023-12-20T14:04:06;14.63;;;6.70;;
19525;SDS011;9907;42.676;26.348;2023-12-20T14:06:32;6.93;;;6.23;;
19525;SDS011;9907;42.676;26.348;2023-12-20T14:08:58;7.67;;;5.80;;
19525;SDS011;9907;42.676;26.348;2023-12-20T14:11:27;7.47;;;5.23;;
19525;SDS011;9907;42.676;26.348;2023-12-20T14:13:53;7.57;;;5.60;;
19525;SDS011;9907;42.676;26.348;2023-12-20T14:16:23;5.60;;;4.70;;
19525;SDS011;9907;42.676;26.348;2023-12-20T14:18:51;12.57;;;6.57;;
19525;SDS011;9907;42.676;26.348;2023-12-20T14:21:22;12.13;;;7.03;;
19525;SDS011;9907;42.676;26.348;2023-12-20T14:23:48;13.83;;;9.13;;
19525;SDS011;9907;42.676;26.348;2023-12-20T14:26:14;15.23;;;10.33;;
19525;SDS011;9907;42.676;26.348;2023-12-20T14:28:41;19.63;;;10.90;;
19525;SDS011;9907;42.676;26.348;2023-12-20T14:31:10;19.20;;;12.87;;
19525;SDS011;9907;42.676;26.348;2023-12-20T14:33:35;15.40;;;9.83;;
19525;SDS011;9907;42.676;26.348;2023-12-20T14:36:03;13.33;;;9.73;;
19525;SDS011;9907;42.676;26.348;2023-12-20T14:38:30;11.47;;;8.50;;
19525;SDS011;9907;42.676;26.348;2023-12-20T14:40:56;11.83;;;8.53;;
19525;SDS011;9907;42.676;26.348;2023-12-20T14:43:22;11.30;;;8.63;;
19525;SDS011;9907;42.676;26.348;2023-12-20T14:45:48;12.10;;;8.23;;
19525;SDS011;9907;42.676;26.348;2023-12-20T14:48:14;10.10;;;7.53;;
19525;SDS011;9907;42.676;26.348;2023-12-20T14:50:39;11.57;;;8.03;;
19525;SDS011;9907;42.676;26.348;2023-12-20T14:53:08;10.43;;;8.37;;
19525;SDS011;9907;42.676;26.348;2023-12-20T14:55:33;13.13;;;9.57;;
19525;SDS011;9907;42.676;26.348;2023-12-20T14:57:59;17.93;;;10.47;;
19525;SDS011;9907;42.676;26.348;2023-12-20T15:00:25;15.93;;;10.63;;
19525;SDS011;9907;42.676;26.348;2023-12-20T15:02:51;16.10;;;11.60;;
19525;SDS011;9907;42.676;26.348;2023-12-20T15:07:57;19.20;;;13.83;;
19525;SDS011;9907;42.676;26.348;2023-12-20T15:31:04;26.40;;;18.70;;
19525;SDS011;9907;42.676;26.348;2023-12-20T15:33:30;25.27;;;18.83;;
19525;SDS011;9907;42.676;26.348;2023-12-20T15:35:56;28.13;;;20.30;;
19525;SDS011;9907;42.676;26.348;2023-12-20T15:38:21;25.30;;;18.63;;
19525;SDS011;9907;42.676;26.348;2023-12-20T15:40:47;35.97;;;22.33;;
19525;SDS011;9907;42.676;26.348;2023-12-20T15:43:13;37.53;;;24.43;;
19525;SDS011;9907;42.676;26.348;2023-12-20T15:45:39;44.77;;;31.03;;
19525;SDS011;9907;42.676;26.348;2023-12-20T15:48:05;67.33;;;44.93;;
19525;SDS011;9907;42.676;26.348;2023-12-20T15:50:30;66.23;;;42.97;;
19525;SDS011;9907;42.676;26.348;2023-12-20T15:52:56;55.70;;;38.73;;
19525;SDS011;9907;42.676;26.348;2023-12-20T15:55:21;54.33;;;37.07;;
19525;SDS011;9907;42.676;26.348;2023-12-20T15:57:47;49.40;;;36.43;;
19525;SDS011;9907;42.676;26.348;2023-12-20T16:00:12;50.03;;;35.80;;
19525;SDS011;9907;42.676;26.348;2023-12-20T16:02:38;50.30;;;36.87;;
19525;SDS011;9907;42.676;26.348;2023-12-20T16:05:04;69.50;;;42.20;;
19525;SDS011;9907;42.676;26.348;2023-12-20T16:07:29;66.87;;;45.13;;
19525;SDS011;9907;42.676;26.348;2023-12-20T16:09:55;63.23;;;42.00;;
19525;SDS011;9907;42.676;26.348;2023-12-20T16:12:21;51.30;;;37.73;;
19525;SDS011;9907;42.676;26.348;2023-12-20T16:14:46;53.40;;;38.10;;
19525;SDS011;9907;42.676;26.348;2023-12-20T16:17:12;52.93;;;36.20;;
19525;SDS011;9907;42.676;26.348;2023-12-20T16:19:37;65.23;;;41.87;;
19525;SDS011;9907;42.676;26.348;2023-12-20T16:22:03;61.50;;;43.07;;
19525;SDS011;9907;42.676;26.348;2023-12-20T16:24:29;61.00;;;45.00;;
19525;SDS011;9907;42.676;26.348;2023-12-20T16:26:56;77.47;;;55.47;;
19525;SDS011;9907;42.676;26.348;2023-12-20T17:01:49;57.53;;;38.13;;
19525;SDS011;9907;42.676;26.348;2023-12-20T17:04:16;62.50;;;39.17;;
19525;SDS011;9907;42.676;26.348;2023-12-20T17:06:42;57.97;;;38.90;;
19525;SDS011;9907;42.676;26.348;2023-12-20T17:09:07;73.93;;;44.87;;
19525;SDS011;9907;42.676;26.348;2023-12-20T17:11:33;78.87;;;47.50;;
19525;SDS011;9907;42.676;26.348;2023-12-20T17:13:59;76.03;;;47.47;;
19525;SDS011;9907;42.676;26.348;2023-12-20T17:16:26;82.10;;;45.93;;
19525;SDS011;9907;42.676;26.348;2023-12-20T17:18:51;62.83;;;39.90;;
19525;SDS011;9907;42.676;26.348;2023-12-20T17:21:17;50.87;;;34.10;;
19525;SDS011;9907;42.676;26.348;2023-12-20T17:23:43;43.23;;;29.13;;
19525;SDS011;9907;42.676;26.348;2023-12-20T17:26:10;45.03;;;28.47;;
19525;SDS011;9907;42.676;26.348;2023-12-20T17:28:36;41.47;;;27.83;;
19525;SDS011;9907;42.676;26.348;2023-12-20T17:31:02;42.83;;;27.23;;
19525;SDS011;9907;42.676;26.348;2023-12-20T17:33:37;37.60;;;26.17;;
19525;SDS011;9907;42.676;26.348;2023-12-20T17:36:03;38.47;;;24.60;;
19525;SDS011;9907;42.676;26.348;2023-12-20T17:38:30;32.90;;;23.03;;
19525;SDS011;9907;42.676;26.348;2023-12-20T17:40:59;32.70;;;23.47;;
19525;SDS011;9907;42.676;26.348;2023-12-20T17:43:24;32.27;;;21.93;;
19525;SDS011;9907;42.676;26.348;2023-12-20T17:45:51;33.10;;;24.53;;
19525;SDS011;9907;42.676;26.348;2023-12-20T17:48:17;42.83;;;29.43;;
19525;SDS011;9907;42.676;26.348;2023-12-20T17:50:44;45.87;;;33.23;;
19525;SDS011;9907;42.676;26.348;2023-12-20T17:53:14;33.23;;;25.93;;
19525;SDS011;9907;42.676;26.348;2023-12-20T17:55:40;31.40;;;21.90;;
19525;SDS011;9907;42.676;26.348;2023-12-20T17:58:06;36.80;;;26.97;;
19525;SDS011;9907;42.676;26.348;2023-12-20T18:00:42;32.07;;;23.97;;
19525;SDS011;9907;42.676;26.348;2023-12-20T18:10:49;39.93;;;30.03;;
19525;SDS011;9907;42.676;26.348;2023-12-20T18:13:14;37.43;;;26.13;;
19525;SDS011;9907;42.676;26.348;2023-12-20T18:15:40;35.10;;;26.77;;
19525;SDS011;9907;42.676;26.348;2023-12-20T18:18:05;35.87;;;26.90;;
19525;SDS011;9907;42.676;26.348;2023-12-20T18:20:39;36.93;;;25.87;;
19525;SDS011;9907;42.676;26.348;2023-12-20T18:30:17;31.07;;;22.67;;
19525;SDS011;9907;42.676;26.348;2023-12-20T18:46:20;23.67;;;18.17;;
19525;SDS011;9907;42.676;26.348;2023-12-20T18:48:47;26.70;;;21.60;;
19525;SDS011;9907;42.676;26.348;2023-12-20T18:51:13;33.03;;;26.17;;
19525;SDS011;9907;42.676;26.348;2023-12-20T18:53:38;29.90;;;23.17;;
19525;SDS011;9907;42.676;26.348;2023-12-20T18:56:06;36.97;;;26.10;;
19525;SDS011;9907;42.676;26.348;2023-12-20T18:58:32;39.57;;;26.17;;
19525;SDS011;9907;42.676;26.348;2023-12-20T19:00:57;40.93;;;30.07;;
19525;SDS011;9907;42.676;26.348;2023-12-20T19:03:25;84.00;;;54.77;;
19525;SDS011;9907;42.676;26.348;2023-12-20T19:05:51;49.00;;;33.63;;
19525;SDS011;9907;42.676;26.348;2023-12-20T19:08:16;41.20;;;29.67;;
19525;SDS011;9907;42.676;26.348;2023-12-20T19:10:42;37.50;;;27.20;;
19525;SDS011;9907;42.676;26.348;2023-12-20T19:13:08;40.00;;;28.60;;
19525;SDS011;9907;42.676;26.348;2023-12-20T19:15:33;41.63;;;30.73;;
19525;SDS011;9907;42.676;26.348;2023-12-20T19:18:00;50.33;;;34.13;;
19525;SDS011;9907;42.676;26.348;2023-12-20T19:20:26;45.17;;;34.43;;
19525;SDS011;9907;42.676;26.348;2023-12-20T19:22:51;45.00;;;32.00;;
19525;SDS011;9907;42.676;26.348;2023-12-20T19:25:48;44.47;;;30.87;;
19525;SDS011;9907;42.676;26.348;2023-12-20T19:28:14;44.20;;;33.53;;
19525;SDS011;9907;42.676;26.348;2023-12-20T19:30:39;45.67;;;32.50;;
19525;SDS011;9907;42.676;26.348;2023-12-20T19:33:05;41.07;;;32.27;;
19525;SDS011;9907;42.676;26.348;2023-12-20T19:35:30;40.93;;;31.73;;
19525;SDS011;9907;42.676;26.348;2023-12-20T19:37:59;33.27;;;25.60;;
19525;SDS011;9907;42.676;26.348;2023-12-20T19:40:25;26.57;;;22.73;;
19525;SDS011;9907;42.676;26.348;2023-12-20T19:42:51;35.47;;;26.00;;
19525;SDS011;9907;42.676;26.348;2023-12-20T19:45:16;32.90;;;25.57;;
19525;SDS011;9907;42.676;26.348;2023-12-20T19:47:48;26.43;;;20.33;;
19525;SDS011;9907;42.676;26.348;2023-12-20T19:50:15;21.20;;;18.37;;
19525;SDS011;9907;42.676;26.348;2023-12-20T19:52:42;20.03;;;16.53;;
19525;SDS011;9907;42.676;26.348;2023-12-20T19:55:08;20.90;;;17.23;;
19525;SDS011;9907;42.676;26.348;2023-12-20T19:57:34;16.07;;;13.70;;
19525;SDS011;9907;42.676;26.348;2023-12-20T19:59:59;33.47;;;23.23;;
19525;SDS011;9907;42.676;26.348;2023-12-20T20:02:30;42.13;;;29.07;;
19525;SDS011;9907;42.676;26.348;2023-12-20T20:04:56;23.03;;;17.47;;
19525;SDS011;9907;42.676;26.348;2023-12-20T20:07:21;18.10;;;13.70;;